createdAt,value
2018-10-17T00:00:59.270Z,8.29
2018-10-17T00:01:59.224Z,8.25
2018-10-17T00:02:59.181Z,8.12
2018-10-17T00:03:59.142Z,8.15
2018-10-17T00:04:59.108Z,8.10
2018-10-17T00:05:59.044Z,8.15
2018-10-17T00:06:59.039Z,8.23
2018-10-17T00:07:58.971Z,8.07
2018-10-17T00:08:58.937Z,7.90
2018-10-17T00:09:58.877Z,7.74
2018-10-17T00:10:58.940Z,7.74
2018-10-17T00:11:58.793Z,7.72
2018-10-17T00:12:58.780Z,7.72
2018-10-17T00:13:58.774Z,7.79
2018-10-17T00:15:13.594Z,8.01
2018-10-17T00:15:58.653Z,7.87
2018-10-17T00:16:58.724Z,7.79
2018-10-17T00:17:58.564Z,7.72
2018-10-17T00:18:58.543Z,7.67
2018-10-17T00:19:58.480Z,7.50
2018-10-17T00:20:58.438Z,7.53
2018-10-17T00:21:58.421Z,7.57
2018-10-17T00:22:58.432Z,7.61
2018-10-17T00:23:58.317Z,7.69
2018-10-17T00:24:58.327Z,7.77
2018-10-17T00:25:58.284Z,7.71
2018-10-17T00:26:58.277Z,7.68
2018-10-17T00:27:58.161Z,7.58
2018-10-17T00:28:58.168Z,7.43
2018-10-17T00:29:58.095Z,7.53
2018-10-17T00:30:58.075Z,7.58
2018-10-17T00:31:57.998Z,7.67
2018-10-17T00:32:57.964Z,7.69
2018-10-17T00:33:57.909Z,7.68
2018-10-17T00:34:57.897Z,7.68
2018-10-17T00:35:57.830Z,7.69
2018-10-17T00:36:57.815Z,7.72
2018-10-17T00:37:57.746Z,7.86
2018-10-17T00:38:57.722Z,7.80
2018-10-17T00:39:57.659Z,7.83
2018-10-17T00:40:57.680Z,7.80
2018-10-17T00:41:57.584Z,7.85
2018-10-17T00:42:57.597Z,7.71
2018-10-17T00:43:57.500Z,7.74
2018-10-17T00:44:57.478Z,7.64
2018-10-17T00:45:57.436Z,7.67
2018-10-17T00:46:57.401Z,7.61
2018-10-17T00:47:57.357Z,7.52
2018-10-17T00:48:57.321Z,7.45
2018-10-17T00:49:57.259Z,7.48
2018-10-17T00:50:57.221Z,7.48
2018-10-17T00:51:57.199Z,7.48
2018-10-17T00:52:57.165Z,7.40
2018-10-17T00:53:57.106Z,7.46
2018-10-17T00:54:57.100Z,7.52
2018-10-17T00:55:57.024Z,7.52
2018-10-17T00:56:57.000Z,7.57
2018-10-17T00:57:56.964Z,7.49
2018-10-17T00:58:56.890Z,7.49
2018-10-17T00:59:56.856Z,7.53
2018-10-17T01:00:56.927Z,7.49
2018-10-17T01:01:56.781Z,7.46
2018-10-17T01:02:56.741Z,7.55
2018-10-17T01:03:56.718Z,7.46
2018-10-17T01:04:56.694Z,7.49
2018-10-17T01:05:56.632Z,7.52
2018-10-17T01:06:56.596Z,7.30
2018-10-17T01:07:56.537Z,7.34
2018-10-17T01:08:56.488Z,7.37
2018-10-17T01:09:56.446Z,7.34
2018-10-17T01:10:56.421Z,7.35
2018-10-17T01:11:56.389Z,7.30
2018-10-17T01:12:56.340Z,7.30
2018-10-17T01:13:56.281Z,7.28
2018-10-17T01:14:56.243Z,7.20
2018-10-17T01:15:56.209Z,7.27
2018-10-17T01:16:56.212Z,7.15
2018-10-17T01:17:56.132Z,7.40
2018-10-17T01:18:56.102Z,7.34
2018-10-17T01:19:56.039Z,7.43
2018-10-17T01:20:56.020Z,7.30
2018-10-17T01:21:55.963Z,7.39
2018-10-17T01:22:55.936Z,7.35
2018-10-17T01:23:55.890Z,7.42
2018-10-17T01:24:55.851Z,7.37
2018-10-17T01:25:55.801Z,7.40
2018-10-17T01:26:55.760Z,7.43
2018-10-17T01:27:55.723Z,7.39
2018-10-17T01:28:55.692Z,7.39
2018-10-17T01:29:55.631Z,7.43
2018-10-17T01:30:55.611Z,7.43
2018-10-17T01:31:55.545Z,7.39
2018-10-17T01:32:55.519Z,7.42
2018-10-17T01:33:55.481Z,7.43
2018-10-17T01:34:55.425Z,7.48
2018-10-17T01:35:55.394Z,7.39
2018-10-17T01:36:55.410Z,7.50
2018-10-17T01:37:55.308Z,7.57
2018-10-17T01:38:55.268Z,7.52
2018-10-17T01:39:55.221Z,7.50
2018-10-17T01:40:55.244Z,7.49
2018-10-17T01:41:55.151Z,7.50
2018-10-17T01:42:55.173Z,7.52
2018-10-17T01:43:55.073Z,7.61
2018-10-17T01:44:55.031Z,7.74
2018-10-17T01:45:55.012Z,7.72
2018-10-17T01:46:54.954Z,7.75
2018-10-17T01:47:54.908Z,7.89
2018-10-17T01:48:54.865Z,8.00
2018-10-17T01:49:54.826Z,7.90
2018-10-17T01:50:54.793Z,7.68
2018-10-17T01:51:54.741Z,7.58
2018-10-17T01:52:54.724Z,7.48
2018-10-17T01:53:54.661Z,7.50
2018-10-17T01:54:54.660Z,7.46
2018-10-17T01:55:54.563Z,7.55
2018-10-17T01:56:54.542Z,7.50
2018-10-17T01:57:54.517Z,7.52
2018-10-17T01:58:54.466Z,7.61
2018-10-17T01:59:54.425Z,7.57
2018-10-17T02:00:54.400Z,7.64
2018-10-17T02:01:54.359Z,7.46
2018-10-17T02:02:54.284Z,7.48
2018-10-17T02:03:54.261Z,7.46
2018-10-17T02:04:54.232Z,7.48
2018-10-17T02:05:54.170Z,7.52
2018-10-17T02:06:54.177Z,7.45
2018-10-17T02:07:54.077Z,7.37
2018-10-17T02:08:54.041Z,7.48
2018-10-17T02:09:54.005Z,7.48
2018-10-17T02:10:53.972Z,7.48
2018-10-17T02:11:53.913Z,7.52
2018-10-17T02:12:53.926Z,7.45
2018-10-17T02:13:53.850Z,7.43
2018-10-17T02:14:53.808Z,7.39
2018-10-17T02:15:53.759Z,7.49
2018-10-17T02:16:53.735Z,7.40
2018-10-17T02:17:53.688Z,7.32
2018-10-17T02:18:53.652Z,7.32
2018-10-17T02:19:53.594Z,7.28
2018-10-17T02:20:53.554Z,7.17
2018-10-17T02:21:53.503Z,7.20
2018-10-17T02:22:53.536Z,7.21
2018-10-17T02:23:53.481Z,7.13
2018-10-17T02:24:53.417Z,6.99
2018-10-17T02:25:53.404Z,7.05
2018-10-17T02:26:53.323Z,7.24
2018-10-17T02:27:53.258Z,7.17
2018-10-17T02:28:53.225Z,7.27
2018-10-17T02:29:53.259Z,7.13
2018-10-17T02:30:53.161Z,7.06
2018-10-17T02:31:53.112Z,7.13
2018-10-17T02:32:53.073Z,7.02
2018-10-17T02:33:53.052Z,6.92
2018-10-17T02:34:52.997Z,6.94
2018-10-17T02:35:52.946Z,6.98
2018-10-17T02:36:52.914Z,7.12
2018-10-17T02:37:52.880Z,7.12
2018-10-17T02:38:52.846Z,7.06
2018-10-17T02:39:52.769Z,7.06
2018-10-17T02:40:52.778Z,7.17
2018-10-17T02:41:52.694Z,7.34
2018-10-17T02:42:52.657Z,7.45
2018-10-17T02:43:52.613Z,7.55
2018-10-17T02:44:52.568Z,7.53
2018-10-17T02:45:52.531Z,7.53
2018-10-17T02:46:52.530Z,7.42
2018-10-17T02:47:52.461Z,7.32
2018-10-17T02:48:52.456Z,7.17
2018-10-17T02:49:52.378Z,7.05
2018-10-17T02:50:52.326Z,7.09
2018-10-17T02:51:52.285Z,7.23
2018-10-17T02:52:52.270Z,7.17
2018-10-17T02:53:52.201Z,7.20
2018-10-17T02:54:52.177Z,7.20
2018-10-17T02:55:52.130Z,7.17
2018-10-17T02:56:52.079Z,7.24
2018-10-17T02:57:52.076Z,7.27
2018-10-17T02:58:52.018Z,7.32
2018-10-17T02:59:51.986Z,7.21
2018-10-17T03:00:52.035Z,7.20
2018-10-17T03:01:51.887Z,7.23
2018-10-17T03:02:51.839Z,7.17
2018-10-17T03:03:51.801Z,7.20
2018-10-17T03:04:51.803Z,7.17
2018-10-17T03:05:51.715Z,7.21
2018-10-17T03:06:51.680Z,7.25
2018-10-17T03:07:51.674Z,7.20
2018-10-17T03:08:51.604Z,7.09
2018-10-17T03:09:51.567Z,7.06
2018-10-17T03:10:51.525Z,7.15
2018-10-17T03:11:51.488Z,7.17
2018-10-17T03:12:51.438Z,7.10
2018-10-17T03:13:51.399Z,7.07
2018-10-17T03:14:51.381Z,7.09
2018-10-17T03:15:51.341Z,7.06
2018-10-17T03:16:51.291Z,7.23
2018-10-17T03:17:51.228Z,7.28
2018-10-17T03:18:51.238Z,7.49
2018-10-17T03:19:51.162Z,7.57
2018-10-17T03:20:51.106Z,7.55
2018-10-17T03:21:51.069Z,7.48
2018-10-17T03:22:51.084Z,7.42
2018-10-17T03:23:51.001Z,7.37
2018-10-17T03:24:50.984Z,7.43
2018-10-17T03:25:50.893Z,7.39
2018-10-17T03:26:50.858Z,7.35
2018-10-17T03:27:50.845Z,7.43
2018-10-17T03:28:50.811Z,7.42
2018-10-17T03:29:50.744Z,7.35
2018-10-17T03:30:50.732Z,7.35
2018-10-17T03:31:50.667Z,7.43
2018-10-17T03:32:50.604Z,7.42
2018-10-17T03:33:50.577Z,7.53
2018-10-17T03:34:50.540Z,7.64
2018-10-17T03:35:50.500Z,7.75
2018-10-17T03:36:50.447Z,7.67
2018-10-17T03:37:50.407Z,7.68
2018-10-17T03:38:50.372Z,7.61
2018-10-17T03:39:50.328Z,7.69
2018-10-17T03:40:50.306Z,7.58
2018-10-17T03:41:50.237Z,7.50
2018-10-17T03:42:50.213Z,7.57
2018-10-17T03:43:50.199Z,7.45
2018-10-17T03:44:50.131Z,7.45
2018-10-17T03:45:50.073Z,7.45
2018-10-17T03:46:50.042Z,7.39
2018-10-17T03:47:49.998Z,7.32
2018-10-17T03:48:49.953Z,7.30
2018-10-17T03:49:49.990Z,7.30
2018-10-17T03:50:49.872Z,7.30
2018-10-17T03:51:49.823Z,7.45
2018-10-17T03:52:49.793Z,7.42
2018-10-17T03:53:49.753Z,7.37
2018-10-17T03:54:49.714Z,7.39
2018-10-17T03:55:49.670Z,7.31
2018-10-17T03:56:49.617Z,7.16
2018-10-17T03:57:49.593Z,7.20
2018-10-17T03:58:49.553Z,7.21
2018-10-17T03:59:49.583Z,7.16
2018-10-17T04:00:49.499Z,7.21
2018-10-17T04:01:49.464Z,7.21
2018-10-17T04:02:49.397Z,7.25
2018-10-17T04:03:49.345Z,7.30
2018-10-17T04:04:49.298Z,7.40
2018-10-17T04:05:49.267Z,7.24
2018-10-17T04:06:49.228Z,7.24
2018-10-17T04:07:49.187Z,7.07
2018-10-17T04:08:49.146Z,6.99
2018-10-17T04:09:49.111Z,7.10
2018-10-17T04:10:49.083Z,7.24
2018-10-17T04:11:49.009Z,7.31
2018-10-17T04:12:48.976Z,7.28
2018-10-17T04:13:48.926Z,7.43
2018-10-17T04:14:48.924Z,7.35
2018-10-17T04:15:48.849Z,7.28
2018-10-17T04:16:48.844Z,7.17
2018-10-17T04:17:48.775Z,7.24
2018-10-17T04:18:48.736Z,7.15
2018-10-17T04:19:48.690Z,7.12
2018-10-17T04:20:48.695Z,7.07
2018-10-17T04:21:48.597Z,6.98
2018-10-17T04:22:48.570Z,7.06
2018-10-17T04:23:48.529Z,7.16
2018-10-17T04:24:48.476Z,7.25
2018-10-17T04:25:48.461Z,7.23
2018-10-17T04:26:48.392Z,7.16
2018-10-17T04:27:48.364Z,7.09
2018-10-17T04:28:48.309Z,6.99
2018-10-17T04:29:48.275Z,7.03
2018-10-17T04:30:48.236Z,7.07
2018-10-17T04:31:48.195Z,6.98
2018-10-17T04:32:48.196Z,6.95
2018-10-17T04:33:48.139Z,6.92
2018-10-17T04:34:48.058Z,7.03
2018-10-17T04:35:48.050Z,7.06
2018-10-17T04:36:47.978Z,7.05
2018-10-17T04:37:47.950Z,6.94
2018-10-17T04:38:47.935Z,6.92
2018-10-17T04:39:47.886Z,6.97
2018-10-17T04:40:47.858Z,6.94
2018-10-17T04:41:47.785Z,6.84
2018-10-17T04:42:47.753Z,6.81
2018-10-17T04:43:47.697Z,6.85
2018-10-17T04:44:47.653Z,6.84
2018-10-17T04:45:47.637Z,6.74
2018-10-17T04:46:47.574Z,6.71
2018-10-17T04:47:47.616Z,6.66
2018-10-17T04:48:47.495Z,6.67
2018-10-17T04:49:47.453Z,6.56
2018-10-17T04:50:47.424Z,6.56
2018-10-17T04:51:47.369Z,6.58
2018-10-17T04:52:47.340Z,6.52
2018-10-17T04:53:47.293Z,6.52
2018-10-17T04:54:47.241Z,6.44
2018-10-17T04:55:47.209Z,6.44
2018-10-17T04:56:47.174Z,6.43
2018-10-17T04:57:47.133Z,6.49
2018-10-17T04:58:47.079Z,6.38
2018-10-17T04:59:47.055Z,6.28
2018-10-17T05:00:47.002Z,6.28
2018-10-17T05:01:46.950Z,6.22
2018-10-17T05:02:46.981Z,6.19
2018-10-17T05:03:46.905Z,6.17
2018-10-17T05:04:46.868Z,6.19
2018-10-17T05:05:46.835Z,6.15
2018-10-17T05:06:46.762Z,6.11
2018-10-17T05:07:46.724Z,6.12
2018-10-17T05:08:46.697Z,6.22
2018-10-17T05:09:46.654Z,6.46
2018-10-17T05:10:46.593Z,6.44
2018-10-17T05:11:46.548Z,6.31
2018-10-17T05:12:46.500Z,6.25
2018-10-17T05:13:46.499Z,6.25
2018-10-17T05:14:46.428Z,6.19
2018-10-17T05:15:46.381Z,6.19
2018-10-17T05:16:46.381Z,6.27
2018-10-17T05:17:46.299Z,6.38
2018-10-17T05:18:46.275Z,6.51
2018-10-17T05:19:46.213Z,6.62
2018-10-17T05:20:46.182Z,6.81
2018-10-17T05:21:46.127Z,6.85
2018-10-17T05:22:46.087Z,6.85
2018-10-17T05:23:46.055Z,6.84
2018-10-17T05:24:46.001Z,6.70
2018-10-17T05:25:45.963Z,6.55
2018-10-17T05:26:45.952Z,6.49
2018-10-17T05:27:45.884Z,6.43
2018-10-17T05:28:45.853Z,6.30
2018-10-17T05:29:45.878Z,6.36
2018-10-17T05:30:45.760Z,6.41
2018-10-17T05:31:45.708Z,6.43
2018-10-17T05:32:45.673Z,6.43
2018-10-17T05:33:45.634Z,6.48
2018-10-17T05:34:45.594Z,6.30
2018-10-17T05:35:45.579Z,6.22
2018-10-17T05:36:45.538Z,6.33
2018-10-17T05:37:45.640Z,6.43
2018-10-17T05:38:45.429Z,6.33
2018-10-17T05:39:45.414Z,6.30
2018-10-17T05:40:45.339Z,6.30
2018-10-17T05:41:45.315Z,6.33
2018-10-17T05:42:45.283Z,6.43
2018-10-17T05:43:45.220Z,6.48
2018-10-17T05:44:45.181Z,6.34
2018-10-17T05:45:45.143Z,6.37
2018-10-17T05:46:45.112Z,6.34
2018-10-17T05:47:45.048Z,6.18
2018-10-17T05:48:45.023Z,6.25
2018-10-17T05:49:44.999Z,6.19
2018-10-17T05:50:44.952Z,6.28
2018-10-17T05:51:44.889Z,6.30
2018-10-17T05:52:44.843Z,6.36
2018-10-17T05:53:44.811Z,6.31
2018-10-17T05:54:44.758Z,6.28
2018-10-17T05:55:44.807Z,6.25
2018-10-17T05:56:44.683Z,6.33
2018-10-17T05:57:44.652Z,6.40
2018-10-17T05:58:44.655Z,6.46
2018-10-17T05:59:44.600Z,6.49
2018-10-17T06:00:44.508Z,6.40
2018-10-17T06:01:44.515Z,6.40
2018-10-17T06:02:44.454Z,6.49
2018-10-17T06:03:44.385Z,6.52
2018-10-17T06:04:44.350Z,6.56
2018-10-17T06:05:44.308Z,6.62
2018-10-17T06:06:44.324Z,6.70
2018-10-17T06:07:44.229Z,6.73
2018-10-17T06:08:44.190Z,6.67
2018-10-17T06:09:44.166Z,6.74
2018-10-17T06:10:44.106Z,6.79
2018-10-17T06:11:44.119Z,6.81
2018-10-17T06:12:44.004Z,6.91
2018-10-17T06:13:43.991Z,6.92
2018-10-17T06:14:43.964Z,7.03
2018-10-17T06:15:43.919Z,7.12
2018-10-17T06:16:43.896Z,7.13
2018-10-17T06:17:43.800Z,7.24
2018-10-17T06:18:43.768Z,7.16
2018-10-17T06:19:43.735Z,7.21
2018-10-17T06:20:43.686Z,7.25
2018-10-17T06:21:43.646Z,7.28
2018-10-17T06:22:43.602Z,7.37
2018-10-17T06:23:43.585Z,7.43
2018-10-17T06:24:43.541Z,7.49
2018-10-17T06:25:43.480Z,7.53
2018-10-17T06:26:43.434Z,7.49
2018-10-17T06:27:43.420Z,7.61
2018-10-17T06:28:43.360Z,7.55
2018-10-17T06:29:43.324Z,7.69
2018-10-17T06:30:43.339Z,7.68
2018-10-17T06:31:43.232Z,7.77
2018-10-17T06:32:43.203Z,7.87
2018-10-17T06:33:43.190Z,7.79
2018-10-17T06:34:43.290Z,7.86
2018-10-17T06:35:43.080Z,7.90
2018-10-17T06:36:43.044Z,7.93
2018-10-17T06:37:43.008Z,8.05
2018-10-17T06:38:42.943Z,8.11
2018-10-17T06:39:42.932Z,8.15
2018-10-17T06:40:42.879Z,8.25
2018-10-17T06:41:42.844Z,8.38
2018-10-17T06:42:42.791Z,8.41
2018-10-17T06:43:43.048Z,8.55
2018-10-17T06:44:42.723Z,8.65
2018-10-17T06:45:42.671Z,8.86
2018-10-17T06:46:42.632Z,8.94
2018-10-17T06:47:42.584Z,8.89
2018-10-17T06:48:42.553Z,8.96
2018-10-17T06:49:42.510Z,9.20
2018-10-17T06:50:42.483Z,9.29
2018-10-17T06:51:42.436Z,9.35
2018-10-17T06:52:42.406Z,9.36
2018-10-17T06:53:42.358Z,9.38
2018-10-17T06:54:42.318Z,9.51
2018-10-17T06:55:42.274Z,9.58
2018-10-17T06:56:42.222Z,9.64
2018-10-17T06:57:42.195Z,9.71
2018-10-17T06:58:42.160Z,9.69
2018-10-17T06:59:42.120Z,9.76
2018-10-17T07:00:47.630Z,9.71
2018-10-17T07:01:42.056Z,9.60
2018-10-17T07:02:42.004Z,9.61
2018-10-17T07:03:41.959Z,9.69
2018-10-17T07:04:41.924Z,9.76
2018-10-17T07:05:41.874Z,10.08
2018-10-17T07:06:41.836Z,10.55
2018-10-17T07:07:41.804Z,10.92
2018-10-17T07:08:41.779Z,10.99
2018-10-17T07:09:41.769Z,10.82
2018-10-17T07:10:41.704Z,10.64
2018-10-17T07:11:41.625Z,10.52
2018-10-17T07:12:41.607Z,10.42
2018-10-17T07:13:41.593Z,10.67
2018-10-17T07:14:41.525Z,10.88
2018-10-17T07:15:41.649Z,11.09
2018-10-17T07:16:41.466Z,11.14
2018-10-17T07:17:41.415Z,11.11
2018-10-17T07:18:41.365Z,11.18
2018-10-17T07:19:41.341Z,11.07
2018-10-17T07:20:41.295Z,10.99
2018-10-17T07:21:41.274Z,10.96
2018-10-17T07:22:41.216Z,10.96
2018-10-17T07:23:41.181Z,10.96
2018-10-17T07:24:41.137Z,11.06
2018-10-17T07:25:41.098Z,11.25
2018-10-17T07:26:41.071Z,11.39
2018-10-17T07:27:41.023Z,11.40
2018-10-17T07:28:41.080Z,11.57
2018-10-17T07:29:41.075Z,11.73
2018-10-17T07:30:40.923Z,11.83
2018-10-17T07:31:40.881Z,11.95
2018-10-17T07:32:40.842Z,11.91
2018-10-17T07:33:40.802Z,11.90
2018-10-17T07:34:40.762Z,11.72
2018-10-17T07:35:40.773Z,11.75
2018-10-17T07:36:40.690Z,11.75
2018-10-17T07:37:40.688Z,11.88
2018-10-17T07:38:40.611Z,12.04
2018-10-17T07:39:40.591Z,12.10
2018-10-17T07:40:40.540Z,12.23
2018-10-17T07:41:40.496Z,12.23
2018-10-17T07:42:40.487Z,12.27
2018-10-17T07:43:40.449Z,12.37
2018-10-17T07:44:40.402Z,12.27
2018-10-17T07:45:40.387Z,12.21
2018-10-17T07:46:40.348Z,12.19
2018-10-17T07:47:40.289Z,12.24
2018-10-17T07:48:40.245Z,12.17
2018-10-17T07:49:40.217Z,12.14
2018-10-17T07:50:40.194Z,12.12
2018-10-17T07:51:40.166Z,12.24
2018-10-17T07:52:40.093Z,12.23
2018-10-17T07:53:40.158Z,12.41
2018-10-17T07:54:40.030Z,12.54
2018-10-17T07:55:39.995Z,12.64
2018-10-17T07:56:39.963Z,12.83
2018-10-17T07:57:39.938Z,12.95
2018-10-17T07:58:39.941Z,13.10
2018-10-17T07:59:39.891Z,13.04
2018-10-17T08:00:39.808Z,13.14
2018-10-17T08:01:39.789Z,13.29
2018-10-17T08:02:39.758Z,13.25
2018-10-17T08:03:39.698Z,13.20
2018-10-17T08:04:39.711Z,13.07
2018-10-17T08:05:39.647Z,13.08
2018-10-17T08:06:39.682Z,13.15
2018-10-17T08:07:39.545Z,13.42
2018-10-17T08:08:39.516Z,13.60
2018-10-17T08:09:39.512Z,13.69
2018-10-17T08:10:39.469Z,13.70
2018-10-17T08:11:39.414Z,13.82
2018-10-17T08:12:39.390Z,13.67
2018-10-17T08:13:39.344Z,13.67
2018-10-17T08:14:39.329Z,13.64
2018-10-17T08:15:39.290Z,13.60
2018-10-17T08:16:39.238Z,13.69
2018-10-17T08:17:39.217Z,13.82
2018-10-17T08:18:39.197Z,13.81
2018-10-17T08:19:39.143Z,13.75
2018-10-17T08:20:39.149Z,13.88
2018-10-17T08:21:39.069Z,13.92
2018-10-17T08:22:39.016Z,14.00
2018-10-17T08:23:39.049Z,14.06
2018-10-17T08:24:38.968Z,13.99
2018-10-17T08:25:38.968Z,14.02
2018-10-17T08:26:38.887Z,14.15
2018-10-17T08:27:38.920Z,14.10
2018-10-17T08:28:38.814Z,14.24
2018-10-17T08:29:38.798Z,14.43
2018-10-17T08:30:38.742Z,15.17
2018-10-17T08:31:38.718Z,15.94
2018-10-17T08:32:38.675Z,16.49
2018-10-17T08:33:38.639Z,16.58
2018-10-17T08:34:38.604Z,16.49
2018-10-17T08:35:38.599Z,16.96
2018-10-17T08:36:38.781Z,17.40
2018-10-17T08:37:38.982Z,17.95
2018-10-17T08:38:38.487Z,17.95
2018-10-17T08:39:38.471Z,18.32
2018-10-17T08:40:38.412Z,17.97
2018-10-17T08:41:38.363Z,17.33
2018-10-17T08:42:38.353Z,16.75
2018-10-17T08:43:38.318Z,16.60
2018-10-17T08:44:38.272Z,16.41
2018-10-17T08:45:38.254Z,16.50
2018-10-17T08:46:38.220Z,16.49
2018-10-17T08:47:38.218Z,16.46
2018-10-17T08:48:38.144Z,16.43
2018-10-17T08:49:38.133Z,16.57
2018-10-17T08:50:38.195Z,16.93
2018-10-17T08:51:38.057Z,17.23
2018-10-17T08:52:38.019Z,17.55
2018-10-17T08:53:38.068Z,17.90
2018-10-17T08:54:37.952Z,17.93
2018-10-17T08:55:37.910Z,17.78
2018-10-17T08:56:37.892Z,17.82
2018-10-17T08:57:37.882Z,17.84
2018-10-17T08:58:37.823Z,17.82
2018-10-17T08:59:37.792Z,17.90
2018-10-17T09:00:37.782Z,18.03
2018-10-17T09:01:37.742Z,18.33
2018-10-17T09:02:37.707Z,18.36
2018-10-17T09:03:37.681Z,18.54
2018-10-17T09:04:37.657Z,18.65
2018-10-17T09:05:37.609Z,18.88
2018-10-17T09:06:37.579Z,18.75
2018-10-17T09:07:37.576Z,18.84
2018-10-17T09:08:37.517Z,18.92
2018-10-17T09:09:37.511Z,19.13
2018-10-17T09:10:37.477Z,19.14
2018-10-17T09:11:37.440Z,19.28
2018-10-17T09:12:37.438Z,19.31
2018-10-17T09:13:37.515Z,19.08
2018-10-17T09:14:37.342Z,18.94
2018-10-17T09:15:38.542Z,18.76
2018-10-17T09:16:37.333Z,18.84
2018-10-17T09:17:37.285Z,18.50
2018-10-17T09:18:37.234Z,18.18
2018-10-17T09:19:37.364Z,17.89
2018-10-17T09:20:37.431Z,18.26
2018-10-17T09:21:37.356Z,18.20
2018-10-17T09:22:37.188Z,17.86
2018-10-17T09:23:37.082Z,18.39
2018-10-17T09:24:37.063Z,19.14
2018-10-17T09:25:37.025Z,18.94
2018-10-17T09:26:36.973Z,19.39
2018-10-17T09:27:36.937Z,19.02
2018-10-17T09:28:36.911Z,18.67
2018-10-17T09:29:36.890Z,19.10
2018-10-17T09:30:36.948Z,19.83
2018-10-17T09:31:36.851Z,20.33
2018-10-17T09:32:36.798Z,20.76
2018-10-17T09:33:36.764Z,21.35
2018-10-17T09:34:36.737Z,21.77
2018-10-17T09:35:36.792Z,22.31
2018-10-17T09:36:36.693Z,22.47
2018-10-17T09:37:36.640Z,22.82
2018-10-17T09:38:36.615Z,23.36
2018-10-17T09:39:36.595Z,23.87
2018-10-17T09:40:36.576Z,24.31
2018-10-17T09:41:36.545Z,24.58
2018-10-17T09:42:36.510Z,24.65
2018-10-17T09:43:36.478Z,24.95
2018-10-17T09:44:36.481Z,25.30
2018-10-17T09:45:36.435Z,25.38
2018-10-17T09:46:36.420Z,25.57
2018-10-17T09:47:36.392Z,25.76
2018-10-17T09:48:36.354Z,25.75
2018-10-17T09:49:36.330Z,25.76
2018-10-17T09:50:36.307Z,25.76
2018-10-17T09:51:36.286Z,25.64
2018-10-17T09:52:36.244Z,25.14
2018-10-17T09:53:36.220Z,24.83
2018-10-17T09:54:36.210Z,25.00
2018-10-17T09:55:36.175Z,25.10
2018-10-17T09:56:36.177Z,25.18
2018-10-17T09:57:36.128Z,25.40
2018-10-17T09:58:36.092Z,25.83
2018-10-17T09:59:36.080Z,25.76
2018-10-17T10:00:36.043Z,25.54
2018-10-17T10:01:36.015Z,25.52
2018-10-17T10:02:36.004Z,25.50
2018-10-17T10:03:35.972Z,25.27
2018-10-17T10:04:35.945Z,25.43
2018-10-17T10:05:35.925Z,25.40
2018-10-17T10:06:35.901Z,25.00
2018-10-17T10:07:35.894Z,24.30
2018-10-17T10:08:35.854Z,24.12
2018-10-17T10:09:35.838Z,24.30
2018-10-17T10:10:35.816Z,24.55
2018-10-17T10:11:35.792Z,24.69
2018-10-17T10:12:35.773Z,25.02
2018-10-17T10:13:35.752Z,25.30
2018-10-17T10:14:35.727Z,25.65
2018-10-17T10:15:35.713Z,26.01
2018-10-17T10:16:35.674Z,26.35
2018-10-17T10:17:35.740Z,26.20
2018-10-17T10:18:35.663Z,26.01
2018-10-17T10:19:35.611Z,25.90
2018-10-17T10:20:35.583Z,25.54
2018-10-17T10:21:35.562Z,25.20
2018-10-17T10:22:35.543Z,24.61
2018-10-17T10:23:35.571Z,24.73
2018-10-17T10:24:35.566Z,25.15
2018-10-17T10:25:35.465Z,25.60
2018-10-17T10:26:35.452Z,25.90
2018-10-17T10:27:35.474Z,26.09
2018-10-17T10:28:35.421Z,26.20
2018-10-17T10:29:35.388Z,26.18
2018-10-17T10:30:35.348Z,26.39
2018-10-17T10:31:35.346Z,26.66
2018-10-17T10:32:35.324Z,26.84
2018-10-17T10:33:35.285Z,27.25
2018-10-17T10:34:35.251Z,26.80
2018-10-17T10:35:35.249Z,26.58
2018-10-17T10:36:35.215Z,26.57
2018-10-17T10:37:35.223Z,26.55
2018-10-17T10:38:35.177Z,26.77
2018-10-17T10:39:35.140Z,26.75
2018-10-17T10:40:35.140Z,26.69
2018-10-17T10:41:35.107Z,26.63
2018-10-17T10:42:35.079Z,26.28
2018-10-17T10:43:35.058Z,24.87
2018-10-17T10:44:35.048Z,23.90
2018-10-17T10:45:35.016Z,23.31
2018-10-17T10:46:34.993Z,22.92
2018-10-17T10:47:35.031Z,22.62
2018-10-17T10:48:34.976Z,22.68
2018-10-17T10:49:34.938Z,22.61
2018-10-17T10:50:34.937Z,22.55
2018-10-17T10:51:34.928Z,22.51
2018-10-17T10:52:34.900Z,22.58
2018-10-17T10:53:34.841Z,22.68
2018-10-17T10:54:34.823Z,23.01
2018-10-17T10:55:34.796Z,22.75
2018-10-17T10:56:34.792Z,22.79
2018-10-17T10:57:34.740Z,23.53
2018-10-17T10:58:34.809Z,24.09
2018-10-17T10:59:34.870Z,24.53
2018-10-17T11:00:34.669Z,24.08
2018-10-17T11:01:34.647Z,23.63
2018-10-17T11:02:34.621Z,23.32
2018-10-17T11:03:34.596Z,23.23
2018-10-17T11:04:34.638Z,23.69
2018-10-17T11:05:34.665Z,23.90
2018-10-17T11:06:34.519Z,23.53
2018-10-17T11:07:34.547Z,23.51
2018-10-17T11:08:34.477Z,24.34
2018-10-17T11:09:34.448Z,24.98
2018-10-17T11:10:34.443Z,25.77
2018-10-17T11:11:34.399Z,26.50
2018-10-17T11:12:34.396Z,26.60
2018-10-17T11:13:34.362Z,27.10
2018-10-17T11:14:34.399Z,27.09
2018-10-17T11:15:34.322Z,26.52
2018-10-17T11:16:34.291Z,25.98
2018-10-17T11:17:34.262Z,25.73
2018-10-17T11:18:34.225Z,25.79
2018-10-17T11:19:34.205Z,25.80
2018-10-17T11:20:34.195Z,25.00
2018-10-17T11:21:34.168Z,24.52
2018-10-17T11:22:34.131Z,23.63
2018-10-17T11:23:34.109Z,23.47
2018-10-17T11:24:34.103Z,23.90
2018-10-17T11:25:34.076Z,24.27
2018-10-17T11:26:34.050Z,24.47
2018-10-17T11:27:34.011Z,24.52
2018-10-17T11:28:34.003Z,24.73
2018-10-17T11:29:33.985Z,25.13
2018-10-17T11:30:33.953Z,25.23
2018-10-17T11:31:33.923Z,25.35
2018-10-17T11:32:33.911Z,25.76
2018-10-17T11:33:33.862Z,26.05
2018-10-17T11:34:33.838Z,26.13
2018-10-17T11:35:33.815Z,26.50
2018-10-17T11:36:33.788Z,26.57
2018-10-17T11:37:33.877Z,26.54
2018-10-17T11:38:33.751Z,26.65
2018-10-17T11:39:33.717Z,26.67
2018-10-17T11:40:33.780Z,26.15
2018-10-17T11:41:33.787Z,25.40
2018-10-17T11:42:33.646Z,25.17
2018-10-17T11:43:33.632Z,25.52
2018-10-17T11:44:33.592Z,25.75
2018-10-17T11:45:33.582Z,25.97
2018-10-17T11:46:33.561Z,26.07
2018-10-17T11:47:33.529Z,25.85
2018-10-17T11:48:33.524Z,25.62
2018-10-17T11:49:33.526Z,25.77
2018-10-17T11:50:33.556Z,25.83
2018-10-17T11:51:33.440Z,25.77
2018-10-17T11:52:33.414Z,25.76
2018-10-17T11:53:33.431Z,25.75
2018-10-17T11:54:33.381Z,25.80
2018-10-17T11:55:33.362Z,25.98
2018-10-17T11:56:33.333Z,25.82
2018-10-17T11:57:33.325Z,25.98
2018-10-17T11:58:33.284Z,25.97
2018-10-17T11:59:33.315Z,25.80
2018-10-17T12:00:33.236Z,25.95
2018-10-17T12:01:33.212Z,25.99
2018-10-17T12:02:33.182Z,25.98
2018-10-17T12:03:33.256Z,26.35
2018-10-17T12:04:33.297Z,26.29
2018-10-17T12:05:33.381Z,25.90
2018-10-17T12:06:33.232Z,25.39
2018-10-17T12:07:33.062Z,25.18
2018-10-17T12:08:33.051Z,25.23
2018-10-17T12:09:33.017Z,25.55
2018-10-17T12:10:32.998Z,25.75
2018-10-17T12:11:32.970Z,25.75
2018-10-17T12:12:32.948Z,25.80
2018-10-17T12:13:32.931Z,25.03
2018-10-17T12:14:32.905Z,25.10
2018-10-17T12:15:32.874Z,25.17
2018-10-17T12:16:32.849Z,25.25
2018-10-17T12:17:32.837Z,25.10
2018-10-17T12:18:32.801Z,25.51
2018-10-17T12:19:32.852Z,25.69
2018-10-17T12:20:32.758Z,25.85
2018-10-17T12:21:32.751Z,25.75
2018-10-17T12:22:32.721Z,25.75
2018-10-17T12:23:32.690Z,25.38
2018-10-17T12:24:32.668Z,25.10
2018-10-17T12:25:32.646Z,24.67
2018-10-17T12:26:32.628Z,24.83
2018-10-17T12:27:32.590Z,25.06
2018-10-17T12:28:32.597Z,24.77
2018-10-17T12:29:32.536Z,24.61
2018-10-17T12:30:32.520Z,24.81
2018-10-17T12:31:32.497Z,24.87
2018-10-17T12:32:32.476Z,25.17
2018-10-17T12:33:32.457Z,25.39
2018-10-17T12:34:32.421Z,25.67
2018-10-17T12:35:32.412Z,25.62
2018-10-17T12:36:32.383Z,25.85
2018-10-17T12:37:32.371Z,25.87
2018-10-17T12:38:32.330Z,25.85
2018-10-17T12:39:32.377Z,25.75
2018-10-17T12:40:32.421Z,25.65
2018-10-17T12:41:32.295Z,25.45
2018-10-17T12:42:32.238Z,25.47
2018-10-17T12:43:32.213Z,25.18
2018-10-17T12:44:32.183Z,24.78
2018-10-17T12:45:32.189Z,24.69
2018-10-17T12:46:32.156Z,25.00
2018-10-17T12:47:32.137Z,24.99
2018-10-17T12:48:32.098Z,24.81
2018-10-17T12:49:32.097Z,24.34
2018-10-17T12:50:32.037Z,24.25
2018-10-17T12:51:32.018Z,24.18
2018-10-17T12:52:32.052Z,24.42
2018-10-17T12:53:32.015Z,24.37
2018-10-17T12:54:31.972Z,24.64
2018-10-17T12:55:31.920Z,24.88
2018-10-17T12:56:31.904Z,25.13
2018-10-17T12:57:31.891Z,25.36
2018-10-17T12:58:31.850Z,25.51
2018-10-17T12:59:31.853Z,25.35
2018-10-17T13:00:31.804Z,25.25
2018-10-17T13:01:31.788Z,25.33
2018-10-17T13:02:31.803Z,25.58
2018-10-17T13:03:31.717Z,25.60
2018-10-17T13:04:31.704Z,25.54
2018-10-17T13:05:31.688Z,25.39
2018-10-17T13:06:31.670Z,25.38